Time;durP1;ratioP1;P1;durP2;ratioP2;P2;SDS_P1;SDS_P2;PMS_P1;PMS_P2;Temp;Humidity;BMP_temperature;BMP_pressure;BME280_temperature;BME280_humidity;BME280_pressure;Samples;Min_cycle;Max_cycle;Signal;HPM_P1;HPM_P2
2022/04/21 00:00:04;;;;;;;;;;;;;;;13.13;41.44;100381.16;4980802;28;19914;-83
2022/04/21 00:02:49;;;;;;;;;;;;;;;13.17;41.15;100369.19;4982687;28;19914;-83
2022/04/21 00:05:33;;;;;;;;;;;;;;;13.26;40.88;100364.41;4966223;28;19914;-83
2022/04/21 00:08:20;;;;;;;;;;;;;;;13.21;41.23;100364.66;4966755;28;19918;-83
2022/04/21 00:11:04;;;;;;;;;;;;;;;13.22;41.30;100362.72;4964767;28;19914;-82
2022/04/21 00:13:49;;;;;;;;;;;;;;;13.20;41.73;100359.53;4970084;28;20305;-82
2022/04/21 00:16:33;;;;;;;;;;;;;;;13.13;41.37;100351.13;4977724;28;19914;-82
2022/04/21 00:19:18;;;;;;;;;;;;;;;13.08;41.49;100345.84;4987584;28;19913;-82
2022/04/21 00:25:06;;;;;;;;;;;;;;;12.99;41.57;100343.25;4977019;28;19914;-82
2022/04/21 00:27:51;;;;;;;;;;;;;;;12.97;41.13;100340.03;4978693;28;19918;-82
2022/04/21 00:30:36;;;;;;;;;;;;;;;13.01;41.18;100340.94;4970293;28;19913;-83
2022/04/21 00:33:21;;;;;;;;;;;;;;;13.02;41.29;100344.47;4982365;28;21332;-83
2022/04/21 00:36:07;;;;;;;;;;;;;;;13.01;41.17;100345.59;4990501;28;19913;-83
2022/04/21 00:38:51;;;;;;;;;;;;;;;13.03;41.21;100344.16;4985159;28;19913;-82
2022/04/21 00:41:36;;;;;;;;;;;;;;;13.05;41.19;100333.69;4988670;28;20195;-83
2022/04/21 00:44:20;;;;;;;;;;;;;;;12.97;41.25;100337.31;5001648;23;20389;-74
2022/04/21 00:47:06;;;;;;;;;;;;;;;12.98;41.90;100336.19;4944265;28;19930;-71
2022/04/21 00:49:51;;;;;;;;;;;;;;;12.82;41.95;100333.31;4970094;28;19918;-73
2022/04/21 00:52:36;;;;;;;;;;;;;;;12.78;42.00;100331.59;4970195;28;19914;-72
2022/04/21 00:55:21;;;;;;;;;;;;;;;12.66;42.57;100324.19;4955610;28;19914;-73
2022/04/21 00:58:07;;;;;;;;;;;;;;;12.55;42.71;100316.78;4974680;28;19917;-73
2022/04/21 01:00:52;;;;;;;;;;;;;;;12.42;42.94;100321.41;4967214;28;19914;-73
2022/04/21 01:03:36;;;;;;;;;;;;;;;12.45;43.02;100320.72;4966572;28;19921;-74
2022/04/21 01:06:22;;;;;;;;;;;;;;;12.30;43.51;100315.91;4975124;28;19914;-75
2022/04/21 01:09:06;;;;;;;;;;;;;;;12.29;43.61;100314.34;4957688;28;19926;-74
2022/04/21 01:11:51;;;;;;;;;;;;;;;12.32;43.42;100319.91;4961148;28;19914;-75
2022/04/21 01:14:39;;;;;;;;;;;;;;;12.31;43.22;100314.78;4955474;28;19914;-75
2022/04/21 01:17:30;;;;;;;;;;;;;;;12.25;43.73;100321.59;4966655;28;19914;-76
2022/04/21 01:20:16;;;;;;;;;;;;;;;12.27;43.56;100316.59;4974925;28;19914;-74
2022/04/21 01:23:00;;;;;;;;;;;;;;;12.33;43.53;100320.72;4974603;28;20297;-74
2022/04/21 01:25:45;;;;;;;;;;;;;;;12.36;43.34;100315.38;4960650;28;19914;-75
2022/04/21 01:28:30;;;;;;;;;;;;;;;12.41;43.45;100317.91;4959404;28;19917;-75
2022/04/21 01:31:22;;;;;;;;;;;;;;;12.32;43.52;100314.47;4960830;28;20366;-74
2022/04/21 01:34:07;;;;;;;;;;;;;;;12.38;43.60;100310.41;4974277;28;19914;-75
2022/04/21 01:42:58;;;;;;;;;;;;;;;12.04;44.81;100310.72;4974311;28;19910;-75
2022/04/21 01:45:43;;;;;;;;;;;;;;;12.12;44.72;100314.50;4956747;28;20370;-74
2022/04/21 01:48:28;;;;;;;;;;;;;;;11.99;45.34;100305.47;4946860;28;19919;-74
2022/04/21 01:51:13;;;;;;;;;;;;;;;12.17;44.85;100312.38;4955310;29;20374;-74
2022/04/21 01:53:57;;;;;;;;;;;;;;;12.18;44.77;100302.28;4954798;28;20381;-74
2022/04/21 01:56:42;;;;;;;;;;;;;;;12.23;44.65;100304.78;4954932;29;19914;-72
2022/04/21 01:59:26;;;;;;;;;;;;;;;12.25;44.99;100297.03;4968559;28;19918;-73
2022/04/21 02:02:10;;;;;;;;;;;;;;;12.26;44.61;100293.19;4965773;28;19914;-73
2022/04/21 02:04:55;;;;;;;;;;;;;;;12.26;44.92;100290.47;4974165;28;19914;-73
2022/04/21 02:07:42;;;;;;;;;;;;;;;12.21;44.82;100296.13;4973975;28;19922;-73
2022/04/21 02:10:26;;;;;;;;;;;;;;;12.10;45.49;100284.06;4974072;28;19918;-74
2022/04/21 02:13:11;;;;;;;;;;;;;;;12.18;45.60;100285.91;4973654;28;20234;-75
2022/04/21 02:15:55;;;;;;;;;;;;;;;12.18;45.84;100285.91;4973903;28;19914;-74
2022/04/21 02:18:39;;;;;;;;;;;;;;;12.27;45.52;100275.72;4935452;29;20298;-74
2022/04/21 02:21:24;;;;;;;;;;;;;;;12.22;45.64;100279.44;4941470;28;19914;-72
2022/04/21 02:24:08;;;;;;;;;;;;;;;12.16;46.15;100274.53;4965511;28;19914;-72
2022/04/21 02:26:53;;;;;;;;;;;;;;;12.19;45.80;100276.63;4964819;28;20413;-71
2022/04/21 02:29:37;;;;;;;;;;;;;;;12.26;45.34;100271.38;4942364;28;19919;-74
2022/04/21 02:32:21;;;;;;;;;;;;;;;12.21;45.79;100264.22;4969920;28;20286;-73
2022/04/21 02:35:09;;;;;;;;;;;;;;;12.24;45.64;100266.25;4970966;28;20368;-77
2022/04/21 02:37:54;;;;;;;;;;;;;;;12.32;45.39;100262.66;4965531;28;20288;-74
2022/04/21 02:40:38;;;;;;;;;;;;;;;12.32;45.45;100264.59;4965482;28;19914;-73
2022/04/21 02:43:22;;;;;;;;;;;;;;;12.27;45.26;100259.34;4973297;28;19914;-73
2022/04/21 02:46:09;;;;;;;;;;;;;;;12.21;45.78;100249.78;4973606;28;19914;-72
2022/04/21 02:48:55;;;;;;;;;;;;;;;12.14;45.93;100249.56;4964703;28;19918;-73
2022/04/21 02:51:40;;;;;;;;;;;;;;;12.23;45.93;100255.72;4973601;28;19914;-72
2022/04/21 02:57:32;;;;;;;;;;;;;;;12.14;46.00;100250.34;4944161;28;19926;-69
2022/04/21 03:00:16;;;;;;;;;;;;;;;12.20;45.83;100251.72;4951613;28;20377;-70
2022/04/21 03:03:01;;;;;;;;;;;;;;;12.15;46.08;100253.88;4958969;28;20301;-70
2022/04/21 03:05:45;;;;;;;;;;;;;;;12.27;45.80;100256.63;4967639;28;19914;-71
2022/04/21 03:08:30;;;;;;;;;;;;;;;12.31;46.09;100252.09;4949876;28;19919;-70
2022/04/21 03:11:14;;;;;;;;;;;;;;;12.31;46.27;100252.09;4953817;29;20373;-70
2022/04/21 03:13:58;;;;;;;;;;;;;;;12.25;45.92;100254.22;4953671;28;19915;-70
2022/04/21 03:16:43;;;;;;;;;;;;;;;12.28;45.67;100250.84;4955758;28;19914;-70
2022/04/21 03:19:27;;;;;;;;;;;;;;;12.17;45.96;100248.88;4959178;28;20369;-70
2022/04/21 03:25:17;;;;;;;;;;;;;;;12.30;45.84;100248.56;4966805;28;19914;-70
2022/04/21 03:28:04;;;;;;;;;;;;;;;12.25;45.88;100243.31;4971679;28;19914;-70
2022/04/21 03:30:48;;;;;;;;;;;;;;;12.23;46.08;100250.25;4976565;28;19913;-71
2022/04/21 03:33:33;;;;;;;;;;;;;;;12.38;45.52;100253.13;4959745;28;19914;-70
2022/04/21 03:36:17;;;;;;;;;;;;;;;12.31;45.89;100249.38;4963548;28;19918;-70
2022/04/21 03:39:02;;;;;;;;;;;;;;;12.21;45.99;100252.53;4955898;29;19922;-70
2022/04/21 03:41:53;;;;;;;;;;;;;;;12.26;45.85;100252.31;4957099;29;19918;-70
2022/04/21 03:44:40;;;;;;;;;;;;;;;12.30;46.11;100250.50;4956438;28;19918;-70
2022/04/21 03:47:25;;;;;;;;;;;;;;;12.29;46.06;100241.50;4961917;28;19914;-70
2022/04/21 03:50:10;;;;;;;;;;;;;;;12.27;46.27;100245.72;4958512;28;19918;-70
2022/04/21 03:52:55;;;;;;;;;;;;;;;12.26;46.47;100244.13;4952711;28;20398;-70
2022/04/21 03:55:39;;;;;;;;;;;;;;;12.24;46.57;100247.19;4946365;29;19914;-70
2022/04/21 03:58:24;;;;;;;;;;;;;;;12.12;46.85;100239.00;4951887;28;19925;-70
2022/04/21 04:01:08;;;;;;;;;;;;;;;12.15;47.10;100237.50;4958394;28;19914;-71
2022/04/21 04:03:53;;;;;;;;;;;;;;;12.09;46.89;100244.34;4961304;28;19915;-70
2022/04/21 04:12:43;;;;;;;;;;;;;;;12.22;47.88;100232.31;4953450;29;19920;-71
2022/04/21 04:15:28;;;;;;;;;;;;;;;12.11;47.86;100234.66;4951958;29;19914;-71
2022/04/21 04:18:12;;;;;;;;;;;;;;;12.09;47.58;100225.25;4964555;28;19918;-70
2022/04/21 04:20:57;;;;;;;;;;;;;;;12.00;47.79;100222.59;4960313;28;19918;-70
2022/04/21 04:23:41;;;;;;;;;;;;;;;11.97;48.40;100226.00;4959458;28;20298;-70
2022/04/21 04:26:26;;;;;;;;;;;;;;;11.94;48.50;100222.00;4950379;28;20386;-69
2022/04/21 04:29:11;;;;;;;;;;;;;;;11.89;48.75;100224.94;4970408;28;19918;-70
2022/04/21 04:31:57;;;;;;;;;;;;;;;11.92;48.34;100223.50;4967679;28;20377;-70
2022/04/21 04:34:42;;;;;;;;;;;;;;;11.94;47.87;100232.09;4975316;28;19913;-70
2022/04/21 04:37:26;;;;;;;;;;;;;;;11.91;48.17;100224.63;4975477;28;19913;-70
2022/04/21 04:40:11;;;;;;;;;;;;;;;11.91;48.12;100233.59;4967565;28;20374;-70
2022/04/21 04:42:56;;;;;;;;;;;;;;;11.96;48.11;100222.47;4975483;28;19914;-70
2022/04/21 04:48:43;;;;;;;;;;;;;;;11.98;48.47;100220.22;4959537;28;19918;-71
2022/04/21 04:51:28;;;;;;;;;;;;;;;11.96;48.86;100217.03;4972770;28;20570;-71
2022/04/21 04:54:13;;;;;;;;;;;;;;;11.98;48.98;100220.22;4964798;28;19913;-71
2022/04/21 04:56:57;;;;;;;;;;;;;;;11.90;49.54;100223.81;4954960;28;19918;-70
2022/04/21 04:59:42;;;;;;;;;;;;;;;11.83;49.88;100214.63;4959465;28;20379;-71
2022/04/21 05:02:26;;;;;;;;;;;;;;;11.90;49.81;100223.81;4966861;28;19914;-70
2022/04/21 05:05:13;;;;;;;;;;;;;;;11.97;49.63;100215.09;4962966;28;19914;-70
2022/04/21 05:07:59;;;;;;;;;;;;;;;12.07;49.77;100219.34;4959332;28;19918;-68
2022/04/21 05:10:44;;;;;;;;;;;;;;;11.85;50.67;100223.22;4955762;29;19922;-67
2022/04/21 05:13:28;;;;;;;;;;;;;;;11.80;50.64;100220.72;4955604;29;19915;-68
2022/04/21 05:16:12;;;;;;;;;;;;;;;11.89;50.64;100221.41;4955406;29;19915;-67
2022/04/21 05:18:57;;;;;;;;;;;;;;;11.93;50.03;100225.88;4962114;28;20366;-68
2022/04/21 05:21:42;;;;;;;;;;;;;;;11.84;50.94;100230.59;4974437;28;20390;-68
2022/04/21 05:24:28;;;;;;;;;;;;;;;11.99;50.59;100232.69;4955221;28;19922;-66
2022/04/21 05:27:13;;;;;;;;;;;;;;;12.01;49.96;100232.38;4955313;29;20366;-66
2022/04/21 05:33:02;;;;;;;;;;;;;;;12.17;50.27;100237.97;4954892;29;19914;-65
2022/04/21 05:35:46;;;;;;;;;;;;;;;12.35;49.76;100237.44;4940979;29;19914;-66
2022/04/21 05:38:31;;;;;;;;;;;;;;;12.37;49.47;100245.28;4947797;29;19918;-66
2022/04/21 05:41:18;;;;;;;;;;;;;;;12.45;49.46;100249.84;4955811;28;20293;-66
2022/04/21 05:44:03;;;;;;;;;;;;;;;12.65;49.46;100248.16;4972882;28;19913;-66
2022/04/21 05:46:50;;;;;;;;;;;;;;;12.76;48.75;100247.38;4965769;28;19914;-66
2022/04/21 05:49:35;;;;;;;;;;;;;;;12.27;50.54;100251.97;4974217;28;19918;-66
2022/04/21 05:52:23;;;;;;;;;;;;;;;12.16;51.14;100261.72;4974001;28;19914;-65
2022/04/21 05:55:08;;;;;;;;;;;;;;;11.92;52.33;100259.72;4974106;28;19918;-66
2022/04/21 05:57:53;;;;;;;;;;;;;;;11.93;51.96;100255.88;4974086;28;20386;-66
2022/04/21 06:00:37;;;;;;;;;;;;;;;11.91;51.95;100251.88;4974105;28;20389;-66
2022/04/21 06:03:22;;;;;;;;;;;;;;;11.84;51.81;100255.13;4968546;28;19914;-66
2022/04/21 06:06:08;;;;;;;;;;;;;;;11.65;51.64;100262.97;4963760;28;19914;-66
2022/04/21 06:08:53;;;;;;;;;;;;;;;11.55;51.64;100256.00;4944824;28;19934;-66
2022/04/21 06:11:37;;;;;;;;;;;;;;;11.63;52.41;100259.00;4954639;28;19918;-65
2022/04/21 06:14:22;;;;;;;;;;;;;;;11.81;51.84;100258.53;4957816;28;19914;-65
2022/04/21 06:17:07;;;;;;;;;;;;;;;11.54;52.23;100259.03;4956603;28;19914;-66
2022/04/21 06:19:51;;;;;;;;;;;;;;;11.63;52.06;100259.00;4949845;29;20281;-66
2022/04/21 06:22:36;;;;;;;;;;;;;;;11.46;52.68;100257.19;4935163;29;19915;-67
2022/04/21 06:25:21;;;;;;;;;;;;;;;11.87;50.87;100265.38;4935172;29;19915;-66
2022/04/21 06:28:05;;;;;;;;;;;;;;;11.85;50.37;100258.66;4937905;29;19914;-67
2022/04/21 06:30:50;;;;;;;;;;;;;;;12.47;48.84;100250.31;4935227;29;20374;-67
2022/04/21 06:33:35;;;;;;;;;;;;;;;12.41;48.84;100255.19;4966783;28;19914;-67
2022/04/21 06:36:19;;;;;;;;;;;;;;;12.52;48.03;100255.53;4965440;28;20374;-65
2022/04/21 06:39:04;;;;;;;;;;;;;;;12.86;47.18;100254.28;4952195;28;19914;-65
2022/04/21 06:41:48;;;;;;;;;;;;;;;12.88;46.97;100254.75;4953658;28;20124;-66
2022/04/21 06:50:43;;;;;;;;;;;;;;;13.27;45.58;100259.53;4922550;29;19918;-69
2022/04/21 06:53:29;;;;;;;;;;;;;;;13.20;45.58;100250.34;4926463;29;20377;-69
2022/04/21 06:56:15;;;;;;;;;;;;;;;13.40;45.39;100248.59;4929304;29;19915;-69
2022/04/21 06:58:59;;;;;;;;;;;;;;;13.89;43.52;100246.47;4934026;29;19914;-69
2022/04/21 07:01:46;;;;;;;;;;;;;;;14.30;43.51;100243.28;4922105;29;19915;-69
2022/04/21 07:04:31;;;;;;;;;;;;;;;14.60;42.95;100234.66;4911788;29;19915;-69
2022/04/21 07:07:16;;;;;;;;;;;;;;;14.72;41.76;100231.84;4932967;29;19915;-70
2022/04/21 07:10:01;;;;;;;;;;;;;;;14.55;40.78;100231.06;4927998;29;19919;-70
2022/04/21 07:12:46;;;;;;;;;;;;;;;14.99;41.07;100220.75;4915973;29;19919;-70
2022/04/21 07:15:31;;;;;;;;;;;;;;;15.42;40.60;100229.91;4927664;29;19915;-70
2022/04/21 07:18:16;;;;;;;;;;;;;;;15.44;39.96;100224.09;4921660;29;19914;-69
2022/04/21 07:21:01;;;;;;;;;;;;;;;15.16;39.52;100214.09;4925649;29;19914;-69
2022/04/21 07:23:46;;;;;;;;;;;;;;;15.08;39.93;100212.38;4918278;29;19915;-69
2022/04/21 07:26:30;;;;;;;;;;;;;;;15.48;38.59;100214.00;4922984;29;19920;-69
2022/04/21 07:29:15;;;;;;;;;;;;;;;15.78;38.78;100215.03;4922273;29;19919;-71
2022/04/21 07:31:59;;;;;;;;;;;;;;;16.05;38.04;100208.47;4930451;29;19915;-70
2022/04/21 07:34:43;;;;;;;;;;;;;;;16.24;37.47;100211.19;4923231;29;20390;-69
2022/04/21 07:37:30;;;;;;;;;;;;;;;16.37;36.45;100214.53;4922377;29;19914;-69
2022/04/21 07:40:14;;;;;;;;;;;;;;;16.52;37.15;100216.34;4919773;29;19914;-70
2022/04/21 07:43:03;;;;;;;;;;;;;;;16.44;36.02;100209.16;4906924;29;19915;-70
2022/04/21 07:45:49;;;;;;;;;;;;;;;16.81;35.12;100217.63;4900940;29;19915;-70
2022/04/21 07:49:45;;;;;;;;;;;;;;;16.52;34.03;100202.63;4920534;29;19915;-70
2022/04/21 07:51:38;;;;;;;;;;;;;;;16.76;33.88;100206.94;4926804;29;19919;-70
2022/04/21 07:54:22;;;;;;;;;;;;;;;16.42;33.67;100205.19;4933405;29;19919;-70
2022/04/21 07:57:07;;;;;;;;;;;;;;;16.23;35.84;100200.56;4918581;29;19919;-70
2022/04/21 07:59:51;;;;;;;;;;;;;;;15.71;34.34;100201.97;4930057;29;20383;-70
2022/04/21 08:02:40;;;;;;;;;;;;;;;16.05;34.40;100192.00;4926364;29;19915;-70
2022/04/21 08:05:25;;;;;;;;;;;;;;;16.09;34.45;100186.63;4912318;29;19914;-70
2022/04/21 08:08:11;;;;;;;;;;;;;;;16.95;34.31;100192.34;4927539;29;19914;-71
2022/04/21 08:10:55;;;;;;;;;;;;;;;17.36;33.28;100190.53;4926003;29;19919;-71
2022/04/21 08:13:40;;;;;;;;;;;;;;;17.24;31.85;100190.75;4919778;29;19915;-71
2022/04/21 08:16:24;;;;;;;;;;;;;;;17.67;32.29;100194.88;4929434;29;19941;-71
2022/04/21 08:19:09;;;;;;;;;;;;;;;17.59;32.50;100188.50;4931952;29;19915;-72
2022/04/21 08:21:53;;;;;;;;;;;;;;;18.23;30.88;100194.69;4920615;29;19915;-71
2022/04/21 08:33:48;;;;;;;;;;;;;;;16.79;32.06;100217.22;4917402;29;19919;-72
2022/04/21 08:36:32;;;;;;;;;;;;;;;16.29;33.31;100210.09;4929044;29;19918;-72
2022/04/21 08:39:17;;;;;;;;;;;;;;;16.26;33.36;100205.31;4936830;29;19919;-72
2022/04/21 08:42:10;;;;;;;;;;;;;;;16.19;33.48;100207.94;4937996;29;19915;-72
2022/04/21 08:44:55;;;;;;;;;;;;;;;16.15;32.92;100220.81;4924904;29;19923;-71
2022/04/21 08:47:40;;;;;;;;;;;;;;;15.90;33.66;100217.59;4915813;29;19999;-71
2022/04/21 08:50:25;;;;;;;;;;;;;;;15.89;33.91;100218.78;4918242;29;20278;-71
2022/04/21 08:53:13;;;;;;;;;;;;;;;15.86;34.12;100219.47;4933426;29;19914;-71
2022/04/21 08:55:57;;;;;;;;;;;;;;;15.66;34.42;100220.66;4936030;29;19914;-71
2022/04/21 08:58:42;;;;;;;;;;;;;;;15.52;33.38;100215.69;4936068;29;19915;-72
2022/04/21 09:01:26;;;;;;;;;;;;;;;15.66;34.13;100210.47;4936233;29;20286;-71
2022/04/21 09:04:11;;;;;;;;;;;;;;;15.68;33.60;100207.38;4916774;29;20373;-71
2022/04/21 09:06:56;;;;;;;;;;;;;;;15.70;34.31;100205.06;4915604;29;19914;-71
2022/04/21 09:10:01;;;;;;;;;;;;;;;15.25;34.65;100203.72;4925340;29;19926;-71
2022/04/21 09:12:47;;;;;;;;;;;;;;;15.25;33.52;100200.19;4912193;29;19915;-71
2022/04/21 09:15:33;;;;;;;;;;;;;;;15.14;34.30;100204.63;4906369;29;19915;-71
2022/04/21 09:18:18;;;;;;;;;;;;;;;15.09;33.75;100207.66;4928934;29;19915;-71
2022/04/21 09:21:06;;;;;;;;;;;;;;;14.92;33.19;100209.66;4907669;29;19915;-71
2022/04/21 09:23:52;;;;;;;;;;;;;;;14.99;33.77;100198.06;4919618;29;19914;-71
2022/04/21 09:26:44;;;;;;;;;;;;;;;14.79;33.68;100197.22;4924715;29;19928;-70
2022/04/21 09:29:32;;;;;;;;;;;;;;;14.81;33.77;100202.34;4923134;29;19919;-71
2022/04/21 09:32:17;;;;;;;;;;;;;;;14.77;33.63;100196.78;4926296;29;19915;-71
2022/04/21 09:35:03;;;;;;;;;;;;;;;14.93;33.20;100191.28;4933491;29;19915;-71
2022/04/21 09:37:49;;;;;;;;;;;;;;;14.99;33.88;100196.13;4916218;29;19918;-71
2022/04/21 09:40:33;;;;;;;;;;;;;;;15.10;33.47;100182.66;4917592;29;19915;-70
2022/04/21 09:46:11;;;;;;;;;;;;;;;15.03;34.77;100166.09;5117178;27;20387;-70
2022/04/21 09:48:56;;;;;;;;;;;;;;;15.03;34.57;100171.56;5079931;28;19917;-70
2022/04/21 09:51:41;;;;;;;;;;;;;;;15.05;34.85;100173.94;5091658;28;20431;-70
2022/04/21 09:54:28;;;;;;;;;;;;;;;15.01;34.25;100179.34;5086269;28;19917;-70
2022/04/21 09:57:13;;;;;;;;;;;;;;;14.98;33.65;100174.59;5089411;28;19916;-70
2022/04/21 09:59:58;;;;;;;;;;;;;;;14.91;34.46;100177.16;5089283;28;19916;-70
2022/04/21 10:02:45;;;;;;;;;;;;;;;14.92;34.46;100173.28;5082630;28;19916;-70
2022/04/21 10:05:31;;;;;;;;;;;;;;;14.77;34.67;100163.16;5086510;28;19920;-70
2022/04/21 10:08:16;;;;;;;;;;;;;;;14.82;34.15;100162.88;5086660;28;19916;-70
2022/04/21 10:11:00;;;;;;;;;;;;;;;14.88;34.14;100169.66;5084758;28;19917;-70
2022/04/21 10:13:45;;;;;;;;;;;;;;;15.05;34.97;100168.44;5086408;28;19916;-70
2022/04/21 10:16:30;;;;;;;;;;;;;;;14.89;34.44;100166.56;5082873;28;19920;-70
2022/04/21 10:19:16;;;;;;;;;;;;;;;14.77;35.05;100171.38;5086529;28;19917;-70
2022/04/21 10:22:03;;;;;;;;;;;;;;;14.52;35.38;100174.31;5085625;28;19916;-70
2022/04/21 10:24:48;;;;;;;;;;;;;;;14.48;34.55;100183.56;5085601;28;19920;-70
2022/04/21 10:27:37;;;;;;;;;;;;;;;14.28;34.61;100182.66;5089661;28;20390;-70
2022/04/21 10:30:31;;;;;;;;;;;;;;;14.20;34.93;100172.69;5089422;28;19916;-70
2022/04/21 10:33:15;;;;;;;;;;;;;;;14.19;35.24;100173.03;5083815;28;19916;-70
2022/04/21 10:36:00;;;;;;;;;;;;;;;14.22;35.51;100183.28;5084575;28;19916;-71
2022/04/21 10:39:04;;;;;;;;;;;;;;;14.24;35.51;100183.72;5078978;28;20355;-71
2022/04/21 10:42:05;;;;;;;;;;;;;;;14.21;35.84;100176.22;5087415;28;19916;-70
2022/04/21 10:44:50;;;;;;;;;;;;;;;14.23;36.09;100171.97;5069047;28;19925;-70
2022/04/21 10:47:36;;;;;;;;;;;;;;;14.21;35.69;100179.75;5088758;28;19920;-71
2022/04/21 10:50:29;;;;;;;;;;;;;;;14.24;35.66;100184.53;5088460;28;19936;-71
2022/04/21 10:59:27;;;;;;;;;;;;;;;14.22;36.78;100195.00;5075064;28;19916;-71
2022/04/21 11:02:12;;;;;;;;;;;;;;;14.24;37.10;100184.53;5068586;28;19921;-71
2022/04/21 11:04:57;;;;;;;;;;;;;;;14.24;37.01;100187.25;5068894;28;20383;-71
2022/04/21 11:07:57;;;;;;;;;;;;;;;14.14;36.42;100174.09;5068258;28;19916;-71
2022/04/21 11:10:43;;;;;;;;;;;;;;;14.14;36.39;100180.38;5071927;28;19916;-71
2022/04/21 11:13:40;;;;;;;;;;;;;;;14.14;36.92;100185.03;5071253;28;19917;-70
2022/04/21 11:16:54;;;;;;;;;;;;;;;14.23;37.57;100187.59;5072530;28;19920;-71
2022/04/21 11:19:45;;;;;;;;;;;;;;;14.23;35.82;100187.59;5068722;28;19950;-71
2022/04/21 11:22:40;;;;;;;;;;;;;;;14.18;36.99;100185.91;5072166;28;19917;-71
2022/04/21 11:25:25;;;;;;;;;;;;;;;14.19;36.53;100182.03;5073792;28;19920;-70
2022/04/21 11:28:12;;;;;;;;;;;;;;;14.13;36.66;100183.44;5072432;28;19916;-70
2022/04/21 11:31:01;;;;;;;;;;;;;;;14.13;36.91;100178.78;5070741;28;19920;-70
2022/04/21 11:33:45;;;;;;;;;;;;;;;14.16;37.18;100182.75;5070496;28;20372;-71
2022/04/21 11:36:37;;;;;;;;;;;;;;;14.18;36.77;100176.91;5074157;28;20322;-70
2022/04/21 11:39:22;;;;;;;;;;;;;;;14.20;37.49;100177.38;5072079;28;19916;-70
2022/04/21 11:42:06;;;;;;;;;;;;;;;14.23;38.06;100169.25;5072418;28;19916;-71
2022/04/21 11:44:51;;;;;;;;;;;;;;;14.25;37.56;100169.69;5072957;28;20371;-71
2022/04/21 11:47:38;;;;;;;;;;;;;;;14.31;38.12;100172.97;5073755;28;19917;-71
2022/04/21 11:50:27;;;;;;;;;;;;;;;14.35;38.07;100165.63;5071645;28;19916;-71
2022/04/21 11:53:18;;;;;;;;;;;;;;;14.34;38.35;100170.31;5072856;28;19916;-71
2022/04/21 11:56:04;;;;;;;;;;;;;;;14.30;38.85;100169.44;5068494;28;19917;-71
2022/04/21 11:58:48;;;;;;;;;;;;;;;14.32;38.62;100169.09;5070298;28;19921;-71
2022/04/21 12:07:40;;;;;;;;;;;;;;;14.38;37.81;100162.22;5070364;28;20287;-71
2022/04/21 12:10:25;;;;;;;;;;;;;;;14.36;38.33;100159.03;5074251;28;19917;-72
2022/04/21 12:13:10;;;;;;;;;;;;;;;14.41;38.44;100173.25;5070824;28;20276;-71
2022/04/21 12:15:54;;;;;;;;;;;;;;;14.47;38.71;100165.59;5073015;28;20388;-72
2022/04/21 12:18:46;;;;;;;;;;;;;;;14.46;38.82;100161.25;5072324;28;19917;-71
2022/04/21 12:21:36;;;;;;;;;;;;;;;14.55;38.71;100157.19;5073186;28;20379;-71
2022/04/21 12:24:26;;;;;;;;;;;;;;;14.57;38.80;100164.25;5070911;28;19917;-71
2022/04/21 12:27:12;;;;;;;;;;;;;;;14.63;38.34;100149.16;5073138;28;19924;-71
2022/04/21 12:29:58;;;;;;;;;;;;;;;14.62;38.26;100142.09;5077675;28;19916;-70
2022/04/21 12:32:46;;;;;;;;;;;;;;;14.65;37.57;100146.84;5073410;28;20375;-71
2022/04/21 12:35:56;;;;;;;;;;;;;;;14.69;37.79;100147.69;5067969;28;19916;-70
2022/04/21 12:38:56;;;;;;;;;;;;;;;14.76;37.73;100145.94;5053326;28;19917;-72
2022/04/21 12:41:42;;;;;;;;;;;;;;;14.79;38.13;100139.72;5062058;28;20295;-72
2022/04/21 12:44:33;;;;;;;;;;;;;;;14.79;38.32;100128.00;5064774;28;19916;-72
2022/04/21 12:47:18;;;;;;;;;;;;;;;14.79;38.12;100131.53;5072941;28;20379;-71
2022/04/21 12:50:12;;;;;;;;;;;;;;;14.84;38.96;100122.22;5065415;28;19917;-72
2022/04/21 12:53:06;;;;;;;;;;;;;;;14.89;39.47;100122.75;5059355;28;19916;-73
2022/04/21 12:55:55;;;;;;;;;;;;;;;15.07;39.58;100117.66;5061130;28;19917;-72
2022/04/21 12:58:40;;;;;;;;;;;;;;;15.16;41.17;100110.03;5052812;28;19920;-72
2022/04/21 13:01:26;;;;;;;;;;;;;;;15.23;40.84;100114.84;5059359;28;19916;-72
2022/04/21 13:04:16;;;;;;;;;;;;;;;15.14;39.76;100112.31;5071043;28;19916;-72
2022/04/21 13:07:01;;;;;;;;;;;;;;;15.00;37.43;100109.28;5072962;28;19920;-72
2022/04/21 13:09:46;;;;;;;;;;;;;;;15.06;38.03;100107.84;5076279;28;20291;-72
2022/04/21 13:12:36;;;;;;;;;;;;;;;15.18;38.80;100110.47;5070544;28;20380;-72
2022/04/21 13:15:21;;;;;;;;;;;;;;;15.11;36.88;100110.31;5071669;28;19924;-72
2022/04/21 13:18:06;;;;;;;;;;;;;;;15.05;37.04;100103.53;5061341;28;19917;-72
2022/04/21 13:24:04;;;;;;;;;;;;;;;15.00;36.64;100095.59;5072460;28;19922;-71
2022/04/21 13:26:57;;;;;;;;;;;;;;;14.98;37.25;100086.97;5067463;28;20112;-72
2022/04/21 13:29:51;;;;;;;;;;;;;;;15.01;36.71;100091.72;5072618;28;19916;-72
2022/04/21 13:35:57;;;;;;;;;;;;;;;15.01;37.49;100086.25;5072556;28;19917;-72
2022/04/21 13:38:41;;;;;;;;;;;;;;;15.07;37.30;100084.81;5072648;28;19916;-72
2022/04/21 13:41:26;;;;;;;;;;;;;;;15.04;36.78;100071.03;5073060;28;19916;-72
2022/04/21 13:44:10;;;;;;;;;;;;;;;15.04;36.56;100065.53;5067228;28;19917;-72
2022/04/21 13:46:56;;;;;;;;;;;;;;;15.04;36.35;100054.59;5072558;28;19920;-73
2022/04/21 13:49:41;;;;;;;;;;;;;;;15.07;35.92;100057.41;5072230;28;19920;-71
2022/04/21 13:52:26;;;;;;;;;;;;;;;15.01;35.89;100049.84;5072336;28;19920;-72
2022/04/21 13:55:10;;;;;;;;;;;;;;;15.07;36.26;100056.63;5072129;28;19916;-72
2022/04/21 13:57:56;;;;;;;;;;;;;;;14.96;35.98;100043.50;5070926;22;20341;-73
2022/04/21 14:00:45;;;;;;;;;;;;;;;14.96;36.20;100053.66;5051432;28;19921;-73
2022/04/21 14:03:36;;;;;;;;;;;;;;;15.04;36.34;100054.59;5032116;28;19917;-73
2022/04/21 14:06:21;;;;;;;;;;;;;;;14.97;36.26;100047.84;5012324;28;20300;-73
2022/04/21 14:09:06;;;;;;;;;;;;;;;14.93;36.23;100052.44;5031890;28;19917;-74
2022/04/21 14:11:51;;;;;;;;;;;;;;;14.85;36.92;100052.66;5012299;28;20384;-73
2022/04/21 14:14:36;;;;;;;;;;;;;;;14.82;36.06;100039.69;5012364;28;19917;-74
2022/04/21 14:17:21;;;;;;;;;;;;;;;14.75;36.42;100034.88;5012324;28;19921;-74
2022/04/21 14:20:06;;;;;;;;;;;;;;;14.80;35.51;100042.78;5012408;28;19925;-73
2022/04/21 14:22:51;;;;;;;;;;;;;;;14.73;35.42;100036.38;5012358;28;19922;-73
2022/04/21 14:25:37;;;;;;;;;;;;;;;14.69;35.51;100035.50;5012208;28;19921;-74
2022/04/21 14:28:21;;;;;;;;;;;;;;;14.69;35.87;100041.75;5012352;28;19917;-73
2022/04/21 14:31:08;;;;;;;;;;;;;;;14.68;35.63;100040.19;5012927;28;19917;-73
2022/04/21 14:33:53;;;;;;;;;;;;;;;14.68;35.75;100042.91;5008306;28;20373;-73
2022/04/21 14:36:38;;;;;;;;;;;;;;;14.64;35.49;100039.31;5029800;28;19918;-74
2022/04/21 14:45:29;;;;;;;;;;;;;;;14.61;35.77;100028.31;5015559;28;19921;-74
2022/04/21 14:48:13;;;;;;;;;;;;;;;14.59;35.56;100019.66;5015523;28;19917;-72
2022/04/21 14:50:58;;;;;;;;;;;;;;;14.57;35.58;100028.25;5012114;28;19918;-72
2022/04/21 14:53:46;;;;;;;;;;;;;;;14.58;35.77;100020.81;5013085;28;19917;-72
2022/04/21 14:56:32;;;;;;;;;;;;;;;14.60;35.64;100021.25;5016054;28;19917;-72
2022/04/21 14:59:21;;;;;;;;;;;;;;;14.58;35.76;100021.59;5019853;28;19917;-71
2022/04/21 15:02:10;;;;;;;;;;;;;;;14.60;35.62;100015.75;5022190;28;19921;-71
2022/04/21 15:04:55;;;;;;;;;;;;;;;14.48;35.83;100019.41;5023786;28;20389;-71
2022/04/21 15:07:39;;;;;;;;;;;;;;;14.52;36.00;100021.09;5019740;28;19925;-71
2022/04/21 15:10:24;;;;;;;;;;;;;;;14.46;36.25;100017.06;5020399;28;19917;-71
2022/04/21 15:13:08;;;;;;;;;;;;;;;14.37;36.15;100013.75;5015026;28;19936;-71
2022/04/21 15:15:53;;;;;;;;;;;;;;;14.41;36.63;100008.34;5015049;28;20377;-71
2022/04/21 15:18:39;;;;;;;;;;;;;;;14.47;36.70;99998.72;5014569;28;20308;-71
2022/04/21 15:21:23;;;;;;;;;;;;;;;14.48;36.58;100003.00;5014691;28;19918;-71